createdAt,value
2022-11-10T11:33:21.420Z,101123.06
2022-11-10T11:36:19.925Z,101125.06
2022-11-10T11:39:23.998Z,101121.75
2022-11-10T11:42:23.187Z,101118.88
2022-11-10T11:45:19.610Z,101117.41
2022-11-10T11:48:30.419Z,101117.81
2022-11-10T11:51:24.695Z,101125.31
2022-11-10T11:54:30.312Z,101132.06
2022-11-10T11:57:37.117Z,101127.13
2022-11-10T12:00:27.317Z,101125.06
2022-11-10T12:04:04.066Z,101128.91
2022-11-10T12:07:06.220Z,101105.13
2022-11-10T12:10:16.545Z,101131.16
2022-11-10T12:13:26.376Z,101135.38
2022-11-10T12:16:22.316Z,101131.81
2022-11-10T12:19:24.323Z,101128.53
2022-11-10T12:22:23.681Z,101135.47
2022-11-10T12:25:25.481Z,101134.00
2022-11-10T12:28:20.084Z,101131.13
2022-11-10T12:31:15.581Z,101131.94
2022-11-10T12:34:08.020Z,101141.47
2022-11-10T12:36:56.462Z,101132.47
2022-11-10T12:39:53.606Z,101140.59
2022-11-10T12:42:40.718Z,101127.88
2022-11-10T12:45:32.560Z,101124.78
2022-11-10T12:48:21.231Z,101126.19
2022-11-10T12:51:15.249Z,101124.09
2022-11-10T12:54:03.546Z,101130.06
2022-11-10T12:56:58.087Z,101134.34
2022-11-10T12:59:56.294Z,101145.13
2022-11-10T13:02:46.784Z,101145.75
2022-11-10T13:05:38.406Z,101143.69
2022-11-10T13:08:32.880Z,101143.22
2022-11-10T13:11:29.346Z,101144.44
2022-11-10T13:14:26.596Z,101123.94
2022-11-10T13:17:53.845Z,101143.16
2022-11-10T13:20:52.303Z,101149.88
2022-11-10T13:24:23.153Z,101153.38
2022-11-10T13:27:15.956Z,101166.00
2022-11-10T13:30:02.849Z,101160.25
2022-11-10T13:32:50.097Z,101154.25
2022-11-10T13:35:55.683Z,101159.81
2022-11-10T13:38:44.405Z,101156.69
2022-11-10T13:41:35.780Z,101155.44
2022-11-10T13:44:26.827Z,101160.53
2022-11-10T13:47:56.153Z,101165.06
2022-11-10T13:50:56.337Z,101168.66
2022-11-10T13:53:56.607Z,101161.72
2022-11-10T13:57:22.127Z,101166.22
2022-11-10T14:00:27.721Z,101172.97
2022-11-10T14:03:57.435Z,101172.59
2022-11-10T14:06:50.222Z,101180.16
2022-11-10T14:09:40.805Z,101168.66
2022-11-10T14:12:35.492Z,101178.88
2022-11-10T14:15:29.374Z,101176.00
2022-11-10T14:18:22.759Z,101183.75
2022-11-10T14:21:22.457Z,101182.34
2022-11-10T14:24:17.500Z,101177.63
2022-11-10T14:27:09.568Z,101168.22
2022-11-10T14:30:20.599Z,101186.66
2022-11-10T14:33:14.583Z,101184.22
2022-11-10T14:36:04.245Z,101185.63
2022-11-10T14:38:53.923Z,101190.13
2022-11-10T14:41:47.646Z,101192.81
2022-11-10T14:44:35.876Z,101193.00
2022-11-10T14:47:31.191Z,101184.22
2022-11-10T14:50:21.476Z,101186.28
2022-11-10T14:53:16.075Z,101198.19
2022-11-10T14:56:08.596Z,101203.53
2022-11-10T14:58:57.051Z,101197.84
2022-11-10T15:01:54.636Z,101202.34
2022-11-10T15:04:45.757Z,101203.59
2022-11-10T15:07:33.448Z,101203.66
2022-11-10T15:10:26.373Z,101216.78
2022-11-10T15:13:39.084Z,101219.28
2022-11-10T15:16:28.767Z,101222.38
2022-11-10T15:19:24.466Z,101220.19
2022-11-10T15:22:19.411Z,101232.06
2022-11-10T15:25:17.274Z,101229.03
2022-11-10T15:28:13.717Z,101230.28
2022-11-10T15:31:05.447Z,101237.88
2022-11-10T15:33:54.358Z,101230.13
2022-11-10T15:36:41.096Z,101234.03
2022-11-10T15:39:28.818Z,101223.81
2022-11-10T15:42:19.423Z,101225.09
2022-11-10T15:45:07.580Z,101223.41
2022-11-10T15:47:56.760Z,101218.75
2022-11-10T15:50:45.209Z,101221.84
2022-11-10T15:53:34.880Z,101223.94
2022-11-10T15:56:24.149Z,101230.72
2022-11-10T15:59:11.987Z,101238.09
2022-11-10T16:02:02.546Z,101235.28
2022-11-10T16:04:58.614Z,101243.09
2022-11-10T16:07:47.449Z,101254.78
2022-11-10T16:10:34.454Z,101250.50
2022-11-10T16:13:26.620Z,101260.94
2022-11-10T16:16:16.536Z,101247.88
2022-11-10T16:19:04.596Z,101262.41
2022-11-10T16:21:53.298Z,101259.81
2022-11-10T16:24:41.113Z,101265.34
2022-11-10T16:27:28.320Z,101265.34
2022-11-10T16:30:16.670Z,101268.44
2022-11-10T16:33:04.580Z,101270.47
2022-11-10T16:35:53.528Z,101272.97
2022-11-10T16:38:41.689Z,101272.81
2022-11-10T16:41:28.850Z,101262.38
2022-11-10T16:44:24.780Z,101282.22
2022-11-10T16:47:19.896Z,101287.16
2022-11-10T16:50:11.192Z,101287.81
2022-11-10T16:52:58.536Z,101292.31
2022-11-10T16:55:46.999Z,101280.47
2022-11-10T16:58:33.866Z,101285.16
2022-11-10T17:01:24.827Z,101284.78
2022-11-10T17:04:14.256Z,101292.19
2022-11-10T17:07:01.255Z,101294.63
2022-11-10T17:09:48.467Z,101306.72
2022-11-10T17:12:36.915Z,101300.81
2022-11-10T17:15:24.175Z,101303.88
2022-11-10T17:18:15.440Z,101294.88
2022-11-10T17:21:03.675Z,101312.66
2022-11-10T17:23:51.143Z,101298.78
2022-11-10T17:26:38.193Z,101305.31
2022-11-10T17:29:26.761Z,101314.53
2022-11-10T17:32:13.691Z,101309.84
2022-11-10T17:35:00.877Z,101318.25
2022-11-10T17:37:51.531Z,101328.28
2022-11-10T17:40:38.509Z,101326.03
2022-11-10T17:43:26.014Z,101342.38
2022-11-10T17:46:15.701Z,101335.63
2022-11-10T17:49:03.325Z,101352.00
2022-11-10T17:51:50.382Z,101338.94
2022-11-10T17:54:37.281Z,101344.88
2022-11-10T17:57:24.342Z,101350.19
2022-11-10T18:00:15.920Z,101348.97
2022-11-10T18:03:08.553Z,101362.25
2022-11-10T18:05:55.352Z,101357.53
2022-11-10T18:08:43.371Z,101355.72
2022-11-10T18:11:30.535Z,101351.41
2022-11-10T18:14:17.639Z,101371.25
2022-11-10T18:17:19.409Z,101358.56
2022-11-10T18:20:09.999Z,101368.38
2022-11-10T18:22:57.230Z,101372.47
2022-11-10T18:25:44.890Z,101358.56
2022-11-10T18:28:32.004Z,101359.00
2022-11-10T18:31:19.256Z,101361.84
2022-11-10T18:34:06.433Z,101364.91
2022-11-10T18:36:55.210Z,101368.81
2022-11-10T18:39:43.230Z,101369.81
2022-11-10T18:42:30.559Z,101366.75
2022-11-10T18:45:18.026Z,101375.16
2022-11-10T18:48:06.014Z,101363.09
2022-11-10T18:50:52.871Z,101360.84
2022-11-10T18:53:41.392Z,101361.06
2022-11-10T18:56:28.602Z,101365.94
2022-11-10T18:59:15.863Z,101377.78
2022-11-10T19:02:02.867Z,101385.91
2022-11-10T19:04:53.523Z,101379.38
2022-11-10T19:07:40.849Z,101377.97
2022-11-10T19:10:29.309Z,101390.59
2022-11-10T19:13:17.520Z,101393.63
2022-11-10T19:16:07.840Z,101392.00
2022-11-10T19:18:55.000Z,101387.50
2022-11-10T19:21:42.315Z,101385.88
2022-11-10T19:24:34.700Z,101396.88
2022-11-10T19:27:26.012Z,101406.91
2022-11-10T19:30:14.140Z,101402.97
2022-11-10T19:33:02.400Z,101416.84
2022-11-10T19:35:49.438Z,101411.75
2022-11-10T19:38:37.813Z,101411.13
2022-11-10T19:41:31.042Z,101409.91
2022-11-10T19:44:19.361Z,101418.88
2022-11-10T19:47:07.386Z,101419.28
2022-11-10T19:49:54.807Z,101431.09
2022-11-10T19:52:41.795Z,101441.09
2022-11-10T19:55:28.914Z,101446.97
2022-11-10T19:58:16.192Z,101453.50
2022-11-10T20:01:05.285Z,101469.59
2022-11-10T20:03:52.271Z,101473.47
2022-11-10T20:06:39.612Z,101482.63
2022-11-10T20:09:26.659Z,101482.22
2022-11-10T20:12:13.375Z,101478.94
2022-11-10T20:15:00.504Z,101495.63
2022-11-10T20:17:48.855Z,101485.84
2022-11-10T20:20:39.275Z,101485.41
2022-11-10T20:23:26.843Z,101463.56
2022-11-10T20:26:16.948Z,101451.72
2022-11-10T20:29:03.600Z,101454.97
2022-11-10T20:31:50.718Z,101452.91
2022-11-10T20:34:39.237Z,101452.91
2022-11-10T20:37:26.138Z,101453.31
2022-11-10T20:40:42.469Z,101456.13
2022-11-10T20:43:22.066Z,101452.06
2022-11-10T20:46:33.328Z,101461.00
2022-11-10T20:49:21.597Z,101450.59
2022-11-10T20:52:10.485Z,101458.75
2022-11-10T20:54:57.366Z,101447.31
2022-11-10T20:57:44.531Z,101455.84
2022-11-10T21:00:31.491Z,101462.19
2022-11-10T21:03:18.539Z,101460.72
2022-11-10T21:06:06.547Z,101457.47
2022-11-10T21:08:56.984Z,101450.72
2022-11-10T21:12:01.449Z,101455.38
2022-11-10T21:14:48.744Z,101462.84
2022-11-10T21:17:38.122Z,101460.41
2022-11-10T21:20:28.679Z,101463.66
2022-11-10T21:23:15.717Z,101468.09
2022-11-10T21:26:04.461Z,101463.22
2022-11-10T21:28:51.161Z,101466.03
2022-11-10T21:31:38.514Z,101474.19
2022-11-10T21:34:27.767Z,101476.19
2022-11-10T21:37:15.087Z,101479.88
2022-11-10T21:40:02.093Z,101478.63
2022-11-10T21:42:56.166Z,101465.97
2022-11-10T21:45:43.537Z,101467.75
2022-11-10T21:48:30.508Z,101464.69
2022-11-10T21:51:17.848Z,101457.97
2022-11-10T21:54:04.801Z,101456.28
2022-11-10T21:56:51.917Z,101464.81
2022-11-10T21:59:40.582Z,101472.97
2022-11-10T22:02:27.652Z,101461.94
2022-11-10T22:05:15.083Z,101473.72
2022-11-10T22:08:02.176Z,101471.06
2022-11-10T22:11:07.186Z,101468.63
2022-11-10T22:14:11.657Z,101468.19
2022-11-10T22:17:15.222Z,101451.06
2022-11-10T22:20:02.328Z,101442.66
2022-11-10T22:22:50.219Z,101455.69
2022-11-10T22:25:37.540Z,101448.50
2022-11-10T22:28:24.603Z,101454.63
2022-11-10T22:31:12.895Z,101458.28
2022-11-10T22:34:01.224Z,101464.16
2022-11-10T22:36:50.281Z,101463.13
2022-11-10T22:39:54.799Z,101467.97
2022-11-10T22:42:59.425Z,101472.84
2022-11-10T22:45:46.566Z,101473.03
2022-11-10T22:48:33.824Z,101475.22
2022-11-10T22:51:22.557Z,101473.41
2022-11-10T22:54:12.809Z,101487.44
2022-11-10T22:56:59.612Z,101466.47
2022-11-10T22:59:46.536Z,101466.66
2022-11-10T23:02:33.723Z,101474.59
2022-11-10T23:05:20.755Z,101465.84
2022-11-10T23:08:09.362Z,101463.38
2022-11-10T23:11:01.154Z,101477.44
2022-11-10T23:13:49.824Z,101469.66
2022-11-10T23:16:36.962Z,101472.31
2022-11-10T23:19:23.835Z,101461.72
2022-11-10T23:22:11.011Z,101457.47
2022-11-10T23:24:59.772Z,101456.84
2022-11-10T23:27:46.860Z,101464.94
2022-11-10T23:30:34.648Z,101473.53
2022-11-10T23:33:22.369Z,101470.06
2022-11-10T23:36:12.214Z,101469.63
2022-11-10T23:38:59.482Z,101482.00
2022-11-10T23:41:47.852Z,101476.72
2022-11-10T23:44:34.996Z,101474.06
2022-11-10T23:47:21.982Z,101481.19
2022-11-10T23:50:10.312Z,101483.84
2022-11-10T23:52:57.299Z,101491.59
2022-11-10T23:55:44.875Z,101478.75
2022-11-10T23:58:34.105Z,101482.41
